sensor_id;sensor_type;location;lat;lon;timestamp;pressure;altitude;pressure_sealevel;temperature;humidity
9225;BME280;4647;48.072;11.616;2023-03-16T00:01:02;95621.94;;;1.46;83.42
9225;BME280;4647;48.072;11.616;2023-03-16T00:03:43;95628.63;;;1.40;83.39
9225;BME280;4647;48.072;11.616;2023-03-16T00:06:18;95626.44;;;1.30;83.46
9225;BME280;4647;48.072;11.616;2023-03-16T00:08:46;95621.28;;;1.21;83.62
9225;BME280;4647;48.072;11.616;2023-03-16T00:11:17;95619.03;;;1.23;83.35
9225;BME280;4647;48.072;11.616;2023-03-16T00:13:45;95617.88;;;1.09;83.44
9225;BME280;4647;48.072;11.616;2023-03-16T00:16:14;95607.69;;;0.99;83.44
9225;BME280;4647;48.072;11.616;2023-03-16T00:18:42;95610.03;;;1.00;83.68
9225;BME280;4647;48.072;11.616;2023-03-16T00:21:12;95615.91;;;0.93;83.89
9225;BME280;4647;48.072;11.616;2023-03-16T00:23:41;95614.25;;;1.01;83.95
9225;BME280;4647;48.072;11.616;2023-03-16T00:26:09;95616.94;;;0.89;83.86
9225;BME280;4647;48.072;11.616;2023-03-16T00:28:40;95615.19;;;0.81;84.04
9225;BME280;4647;48.072;11.616;2023-03-16T00:31:10;95590.31;;;0.49;83.76
9225;BME280;4647;48.072;11.616;2023-03-16T00:33:39;95598.75;;;0.51;83.77
9225;BME280;4647;48.072;11.616;2023-03-16T00:36:08;95608.84;;;0.45;83.96
9225;BME280;4647;48.072;11.616;2023-03-16T00:38:38;95598.09;;;0.29;84.21
9225;BME280;4647;48.072;11.616;2023-03-16T00:41:11;95592.69;;;0.26;84.63
9225;BME280;4647;48.072;11.616;2023-03-16T00:43:43;95598.66;;;0.23;84.48
9225;BME280;4647;48.072;11.616;2023-03-16T00:46:14;95600.22;;;0.12;84.81
9225;BME280;4647;48.072;11.616;2023-03-16T00:48:45;95600.44;;;0.19;85.33
9225;BME280;4647;48.072;11.616;2023-03-16T00:51:15;95603.09;;;0.31;85.58
9225;BME280;4647;48.072;11.616;2023-03-16T00:53:45;95609.41;;;0.39;85.39
9225;BME280;4647;48.072;11.616;2023-03-16T00:56:14;95602.31;;;0.30;85.42
9225;BME280;4647;48.072;11.616;2023-03-16T00:58:46;95598.34;;;0.24;85.50
9225;BME280;4647;48.072;11.616;2023-03-16T01:01:16;95603.97;;;0.23;85.07
9225;BME280;4647;48.072;11.616;2023-03-16T01:03:45;95602.31;;;0.18;84.92
9225;BME280;4647;48.072;11.616;2023-03-16T01:06:15;95589.81;;;0.07;85.04
9225;BME280;4647;48.072;11.616;2023-03-16T01:08:45;95595.69;;;0.00;84.94
9225;BME280;4647;48.072;11.616;2023-03-16T01:11:16;95602.66;;;-0.08;84.78
9225;BME280;4647;48.072;11.616;2023-03-16T01:13:48;95602.69;;;-0.20;85.12
9225;BME280;4647;48.072;11.616;2023-03-16T01:16:18;95582.25;;;-0.40;85.61
9225;BME280;4647;48.072;11.616;2023-03-16T01:18:48;95598.88;;;-0.31;86.21
9225;BME280;4647;48.072;11.616;2023-03-16T01:21:17;95592.13;;;-0.41;87.06
9225;BME280;4647;48.072;11.616;2023-03-16T01:23:46;95594.00;;;-0.41;87.08
9225;BME280;4647;48.072;11.616;2023-03-16T01:26:15;95585.59;;;-0.43;87.31
9225;BME280;4647;48.072;11.616;2023-03-16T01:28:43;95597.13;;;-0.39;87.64
9225;BME280;4647;48.072;11.616;2023-03-16T01:31:14;95589.13;;;-0.27;86.80
9225;BME280;4647;48.072;11.616;2023-03-16T01:33:43;95596.69;;;-0.17;86.67
9225;BME280;4647;48.072;11.616;2023-03-16T01:36:14;95592.56;;;-0.26;87.05
9225;BME280;4647;48.072;11.616;2023-03-16T01:38:44;95576.94;;;-0.28;86.80
9225;BME280;4647;48.072;11.616;2023-03-16T01:41:13;95563.06;;;-0.34;86.33
9225;BME280;4647;48.072;11.616;2023-03-16T01:43:42;95582.06;;;-0.23;86.41
9225;BME280;4647;48.072;11.616;2023-03-16T01:46:20;95586.47;;;-0.27;85.83
9225;BME280;4647;48.072;11.616;2023-03-16T01:48:55;95583.69;;;-0.43;85.78
9225;BME280;4647;48.072;11.616;2023-03-16T01:51:29;95578.25;;;-0.58;85.96
9225;BME280;4647;48.072;11.616;2023-03-16T01:54:02;95569.81;;;-0.60;86.61
9225;BME280;4647;48.072;11.616;2023-03-16T01:56:34;95566.25;;;-0.52;86.12
9225;BME280;4647;48.072;11.616;2023-03-16T01:59:09;95568.81;;;-0.68;85.36
9225;BME280;4647;48.072;11.616;2023-03-16T02:01:41;95573.97;;;-0.84;86.70
9225;BME280;4647;48.072;11.616;2023-03-16T02:04:17;95573.84;;;-0.87;87.45
9225;BME280;4647;48.072;11.616;2023-03-16T02:06:54;95575.41;;;-0.86;86.90
9225;BME280;4647;48.072;11.616;2023-03-16T02:09:24;95568.53;;;-0.87;85.97
9225;BME280;4647;48.072;11.616;2023-03-16T02:11:54;95570.16;;;-0.95;86.29
9225;BME280;4647;48.072;11.616;2023-03-16T02:14:23;95579.47;;;-1.01;86.52
9225;BME280;4647;48.072;11.616;2023-03-16T02:16:54;95576.19;;;-0.86;86.23
9225;BME280;4647;48.072;11.616;2023-03-16T02:19:32;95566.88;;;-0.92;85.54
9225;BME280;4647;48.072;11.616;2023-03-16T02:22:05;95572.53;;;-0.94;85.79
9225;BME280;4647;48.072;11.616;2023-03-16T02:24:35;95572.72;;;-0.99;85.63
9225;BME280;4647;48.072;11.616;2023-03-16T02:27:06;95570.38;;;-1.00;85.54
9225;BME280;4647;48.072;11.616;2023-03-16T02:30:09;95565.03;;;-1.12;85.72
9225;BME280;4647;48.072;11.616;2023-03-16T02:32:39;95569.53;;;-1.25;86.04
9225;BME280;4647;48.072;11.616;2023-03-16T02:35:09;95567.06;;;-1.30;86.47
9225;BME280;4647;48.072;11.616;2023-03-16T02:37:38;95571.94;;;-1.32;87.08
9225;BME280;4647;48.072;11.616;2023-03-16T02:40:19;95579.63;;;-1.18;86.55
9225;BME280;4647;48.072;11.616;2023-03-16T02:42:52;95574.03;;;-1.05;86.72
9225;BME280;4647;48.072;11.616;2023-03-16T02:45:28;95570.34;;;-1.12;86.49
9225;BME280;4647;48.072;11.616;2023-03-16T02:48:01;95566.53;;;-1.24;86.58
9225;BME280;4647;48.072;11.616;2023-03-16T02:50:30;95549.84;;;-1.45;86.88
9225;BME280;4647;48.072;11.616;2023-03-16T02:52:59;95570.72;;;-1.35;87.24
9225;BME280;4647;48.072;11.616;2023-03-16T02:55:27;95569.72;;;-1.30;88.97
9225;BME280;4647;48.072;11.616;2023-03-16T02:57:56;95569.41;;;-1.29;87.90
9225;BME280;4647;48.072;11.616;2023-03-16T03:00:27;95564.66;;;-1.23;87.79
9225;BME280;4647;48.072;11.616;2023-03-16T03:02:56;95552.34;;;-1.28;87.44
9225;BME280;4647;48.072;11.616;2023-03-16T03:05:25;95579.63;;;-1.18;87.45
9225;BME280;4647;48.072;11.616;2023-03-16T03:07:53;95568.09;;;-1.23;87.73
9225;BME280;4647;48.072;11.616;2023-03-16T03:10:22;95530.41;;;-1.37;87.79
9225;BME280;4647;48.072;11.616;2023-03-16T03:12:50;95566.16;;;-1.13;86.99
9225;BME280;4647;48.072;11.616;2023-03-16T03:15:19;95565.75;;;-1.24;87.08
9225;BME280;4647;48.072;11.616;2023-03-16T03:17:50;95563.63;;;-1.31;87.75
9225;BME280;4647;48.072;11.616;2023-03-16T03:20:19;95549.66;;;-1.40;87.98
9225;BME280;4647;48.072;11.616;2023-03-16T03:22:49;95566.69;;;-1.41;87.76
9225;BME280;4647;48.072;11.616;2023-03-16T03:25:18;95569.09;;;-1.48;87.62
9225;BME280;4647;48.072;11.616;2023-03-16T03:27:48;95560.66;;;-1.50;87.08
9225;BME280;4647;48.072;11.616;2023-03-16T03:30:20;95563.06;;;-1.57;87.30
9225;BME280;4647;48.072;11.616;2023-03-16T03:32:51;95565.53;;;-1.52;87.48
9225;BME280;4647;48.072;11.616;2023-03-16T03:35:20;95562.88;;;-1.52;87.90
9225;BME280;4647;48.072;11.616;2023-03-16T03:37:50;95555.94;;;-1.44;87.55
9225;BME280;4647;48.072;11.616;2023-03-16T03:40:18;95558.47;;;-1.48;87.26
9225;BME280;4647;48.072;11.616;2023-03-16T03:42:47;95571.09;;;-1.45;87.31
9225;BME280;4647;48.072;11.616;2023-03-16T03:45:16;95540.28;;;-1.58;87.21
9225;BME280;4647;48.072;11.616;2023-03-16T03:47:45;95560.75;;;-1.38;87.75
9225;BME280;4647;48.072;11.616;2023-03-16T03:50:19;95559.47;;;-1.19;87.49
9225;BME280;4647;48.072;11.616;2023-03-16T03:52:47;95566.28;;;-1.31;87.54
9225;BME280;4647;48.072;11.616;2023-03-16T03:55:16;95560.13;;;-1.43;87.72
9225;BME280;4647;48.072;11.616;2023-03-16T03:57:45;95558.88;;;-1.58;86.97
9225;BME280;4647;48.072;11.616;2023-03-16T04:00:14;95554.09;;;-1.65;86.83
9225;BME280;4647;48.072;11.616;2023-03-16T04:02:45;95551.88;;;-1.63;87.34
9225;BME280;4647;48.072;11.616;2023-03-16T04:05:14;95553.22;;;-1.57;87.55
9225;BME280;4647;48.072;11.616;2023-03-16T04:07:45;95547.25;;;-1.53;87.28
9225;BME280;4647;48.072;11.616;2023-03-16T04:10:15;95550.25;;;-1.55;87.39
9225;BME280;4647;48.072;11.616;2023-03-16T04:12:43;95546.69;;;-1.59;86.81
9225;BME280;4647;48.072;11.616;2023-03-16T04:15:12;95542.59;;;-1.77;87.20
9225;BME280;4647;48.072;11.616;2023-03-16T04:17:41;95552.13;;;-1.76;87.36
9225;BME280;4647;48.072;11.616;2023-03-16T04:20:11;95549.22;;;-1.83;88.17
9225;BME280;4647;48.072;11.616;2023-03-16T04:22:40;95547.59;;;-1.76;87.09
9225;BME280;4647;48.072;11.616;2023-03-16T04:25:13;95550.78;;;-1.82;86.60
9225;BME280;4647;48.072;11.616;2023-03-16T04:27:43;95556.09;;;-1.82;86.14
9225;BME280;4647;48.072;11.616;2023-03-16T04:30:13;95522.53;;;-2.08;86.13
9225;BME280;4647;48.072;11.616;2023-03-16T04:32:42;95550.22;;;-1.97;85.99
9225;BME280;4647;48.072;11.616;2023-03-16T04:35:10;95559.94;;;-2.01;86.00
9225;BME280;4647;48.072;11.616;2023-03-16T04:40:14;95568.28;;;-1.90;85.73
9225;BME280;4647;48.072;11.616;2023-03-16T04:42:44;95570.56;;;-2.01;86.00
9225;BME280;4647;48.072;11.616;2023-03-16T04:45:14;95545.22;;;-2.19;86.09
9225;BME280;4647;48.072;11.616;2023-03-16T04:47:43;95557.34;;;-2.09;86.02
9225;BME280;4647;48.072;11.616;2023-03-16T04:50:14;95558.66;;;-1.95;86.72
9225;BME280;4647;48.072;11.616;2023-03-16T04:52:42;95550.34;;;-1.93;86.35
9225;BME280;4647;48.072;11.616;2023-03-16T04:55:13;95552.06;;;-1.89;86.21
9225;BME280;4647;48.072;11.616;2023-03-16T04:57:42;95542.53;;;-1.90;85.90
9225;BME280;4647;48.072;11.616;2023-03-16T05:00:12;95553.34;;;-1.95;86.04
9225;BME280;4647;48.072;11.616;2023-03-16T05:02:43;95544.00;;;-2.01;85.94
9225;BME280;4647;48.072;11.616;2023-03-16T05:05:12;95553.97;;;-1.98;85.63
9225;BME280;4647;48.072;11.616;2023-03-16T05:07:41;95542.53;;;-2.10;85.56
9225;BME280;4647;48.072;11.616;2023-03-16T05:10:10;95540.31;;;-2.08;85.89
9225;BME280;4647;48.072;11.616;2023-03-16T05:12:43;95534.03;;;-2.04;86.07
9225;BME280;4647;48.072;11.616;2023-03-16T05:15:11;95536.19;;;-1.97;85.69
9225;BME280;4647;48.072;11.616;2023-03-16T05:17:41;95529.78;;;-1.96;86.06
9225;BME280;4647;48.072;11.616;2023-03-16T05:20:12;95525.50;;;-1.89;85.77
9225;BME280;4647;48.072;11.616;2023-03-16T05:22:42;95530.44;;;-1.78;86.13
9225;BME280;4647;48.072;11.616;2023-03-16T05:25:13;95541.44;;;-1.89;85.60
9225;BME280;4647;48.072;11.616;2023-03-16T05:27:46;95525.81;;;-1.90;86.07
9225;BME280;4647;48.072;11.616;2023-03-16T05:30:16;95520.34;;;-1.85;86.38
9225;BME280;4647;48.072;11.616;2023-03-16T05:32:45;95509.59;;;-1.89;86.36
9225;BME280;4647;48.072;11.616;2023-03-16T05:35:13;95526.00;;;-1.74;86.43
9225;BME280;4647;48.072;11.616;2023-03-16T05:37:42;95521.09;;;-1.64;86.88
9225;BME280;4647;48.072;11.616;2023-03-16T05:40:13;95522.38;;;-1.49;86.55
9225;BME280;4647;48.072;11.616;2023-03-16T05:42:46;95524.38;;;-1.46;87.65
9225;BME280;4647;48.072;11.616;2023-03-16T05:45:16;95521.22;;;-1.27;87.25
9225;BME280;4647;48.072;11.616;2023-03-16T05:47:44;95523.78;;;-1.18;87.20
9225;BME280;4647;48.072;11.616;2023-03-16T05:50:14;95520.41;;;-1.07;86.85
9225;BME280;4647;48.072;11.616;2023-03-16T05:52:44;95518.88;;;-0.96;87.32
9225;BME280;4647;48.072;11.616;2023-03-16T05:55:15;95515.78;;;-0.85;87.37
9225;BME280;4647;48.072;11.616;2023-03-16T05:57:46;95507.16;;;-0.82;87.10
9225;BME280;4647;48.072;11.616;2023-03-16T06:00:16;95520.47;;;-0.70;87.30
9225;BME280;4647;48.072;11.616;2023-03-16T06:02:46;95519.94;;;-0.64;87.42
9225;BME280;4647;48.072;11.616;2023-03-16T06:05:16;95519.81;;;-0.55;87.36
9225;BME280;4647;48.072;11.616;2023-03-16T06:07:46;95527.47;;;-0.29;87.91
9225;BME280;4647;48.072;11.616;2023-03-16T06:10:15;95524.34;;;-0.07;87.29
9225;BME280;4647;48.072;11.616;2023-03-16T06:12:47;95531.25;;;-0.18;87.32
9225;BME280;4647;48.072;11.616;2023-03-16T06:15:15;95524.34;;;-0.07;87.75
9225;BME280;4647;48.072;11.616;2023-03-16T06:17:44;95520.13;;;0.05;87.52
9225;BME280;4647;48.072;11.616;2023-03-16T06:20:13;95528.66;;;0.10;87.37
9225;BME280;4647;48.072;11.616;2023-03-16T06:22:42;95540.84;;;0.11;87.65
9225;BME280;4647;48.072;11.616;2023-03-16T06:25:12;95518.75;;;0.11;87.26
9225;BME280;4647;48.072;11.616;2023-03-16T06:27:41;95529.78;;;0.37;87.68
9225;BME280;4647;48.072;11.616;2023-03-16T06:30:13;95524.66;;;0.44;87.40
9225;BME280;4647;48.072;11.616;2023-03-16T06:32:42;95524.97;;;0.55;87.09
9225;BME280;4647;48.072;11.616;2023-03-16T06:35:11;95535.22;;;0.69;87.45
9225;BME280;4647;48.072;11.616;2023-03-16T06:37:39;95554.03;;;0.88;86.61
9225;BME280;4647;48.072;11.616;2023-03-16T06:40:09;95543.72;;;0.86;86.20
9225;BME280;4647;48.072;11.616;2023-03-16T06:42:38;95545.09;;;0.52;86.71
9225;BME280;4647;48.072;11.616;2023-03-16T06:45:08;95542.41;;;0.80;87.00
9225;BME280;4647;48.072;11.616;2023-03-16T06:47:40;95539.41;;;0.82;87.12
9225;BME280;4647;48.072;11.616;2023-03-16T06:50:09;95544.03;;;0.97;86.56
9225;BME280;4647;48.072;11.616;2023-03-16T06:52:38;95541.22;;;0.93;86.31
9225;BME280;4647;48.072;11.616;2023-03-16T06:55:08;95532.31;;;1.02;85.56
9225;BME280;4647;48.072;11.616;2023-03-16T06:57:38;95542.22;;;1.01;85.43
9225;BME280;4647;48.072;11.616;2023-03-16T07:00:08;95540.97;;;0.83;85.05
9225;BME280;4647;48.072;11.616;2023-03-16T07:02:41;95548.50;;;1.09;85.54
9225;BME280;4647;48.072;11.616;2023-03-16T07:05:10;95542.84;;;1.42;85.11
9225;BME280;4647;48.072;11.616;2023-03-16T07:07:40;95539.50;;;1.45;84.48
9225;BME280;4647;48.072;11.616;2023-03-16T07:10:11;95543.38;;;1.47;84.82
9225;BME280;4647;48.072;11.616;2023-03-16T07:12:41;95532.59;;;1.75;84.84
9225;BME280;4647;48.072;11.616;2023-03-16T07:15:10;95529.59;;;1.45;83.24
9225;BME280;4647;48.072;11.616;2023-03-16T07:17:41;95540.44;;;1.37;85.14
9225;BME280;4647;48.072;11.616;2023-03-16T07:20:11;95538.56;;;1.53;85.01
9225;BME280;4647;48.072;11.616;2023-03-16T07:22:39;95531.91;;;1.63;83.76
9225;BME280;4647;48.072;11.616;2023-03-16T07:25:09;95536.16;;;1.48;83.38
9225;BME280;4647;48.072;11.616;2023-03-16T07:27:38;95541.38;;;1.60;83.52
9225;BME280;4647;48.072;11.616;2023-03-16T07:30:10;95542.16;;;1.61;82.03
9225;BME280;4647;48.072;11.616;2023-03-16T07:32:41;95535.34;;;1.95;84.01
9225;BME280;4647;48.072;11.616;2023-03-16T07:35:10;95542.25;;;1.64;82.49
9225;BME280;4647;48.072;11.616;2023-03-16T07:37:38;95533.38;;;1.76;83.01
9225;BME280;4647;48.072;11.616;2023-03-16T07:40:09;95540.19;;;1.58;82.43
9225;BME280;4647;48.072;11.616;2023-03-16T07:42:38;95507.22;;;1.50;81.75
9225;BME280;4647;48.072;11.616;2023-03-16T07:45:09;95534.16;;;1.76;81.21
9225;BME280;4647;48.072;11.616;2023-03-16T07:47:41;95547.16;;;1.94;80.87
9225;BME280;4647;48.072;11.616;2023-03-16T07:50:10;95544.97;;;2.34;79.69
9225;BME280;4647;48.072;11.616;2023-03-16T07:52:40;95555.78;;;2.22;79.54
9225;BME280;4647;48.072;11.616;2023-03-16T07:55:10;95554.53;;;2.35;78.21
9225;BME280;4647;48.072;11.616;2023-03-16T07:57:39;95550.66;;;2.33;78.37
9225;BME280;4647;48.072;11.616;2023-03-16T08:00:13;95555.41;;;2.39;77.69
9225;BME280;4647;48.072;11.616;2023-03-16T08:02:47;95555.94;;;2.29;77.80
9225;BME280;4647;48.072;11.616;2023-03-16T08:05:16;95558.19;;;2.62;76.87
9225;BME280;4647;48.072;11.616;2023-03-16T08:07:45;95559.03;;;2.66;76.96
9225;BME280;4647;48.072;11.616;2023-03-16T08:10:14;95562.25;;;2.95;75.86
9225;BME280;4647;48.072;11.616;2023-03-16T08:12:43;95573.44;;;2.62;75.92
9225;BME280;4647;48.072;11.616;2023-03-16T08:15:11;95569.66;;;2.63;76.08
9225;BME280;4647;48.072;11.616;2023-03-16T08:17:40;95579.22;;;2.83;76.01
9225;BME280;4647;48.072;11.616;2023-03-16T08:20:12;95579.56;;;3.01;75.74
9225;BME280;4647;48.072;11.616;2023-03-16T08:22:41;95575.38;;;3.23;74.50
9225;BME280;4647;48.072;11.616;2023-03-16T08:25:10;95581.59;;;3.07;74.69
9225;BME280;4647;48.072;11.616;2023-03-16T08:27:39;95578.44;;;3.44;74.45
9225;BME280;4647;48.072;11.616;2023-03-16T08:30:09;95530.81;;;3.11;73.46
9225;BME280;4647;48.072;11.616;2023-03-16T08:32:38;95576.72;;;3.78;72.54
9225;BME280;4647;48.072;11.616;2023-03-16T08:35:11;95590.16;;;3.55;71.59
9225;BME280;4647;48.072;11.616;2023-03-16T08:37:41;95588.78;;;4.14;70.66
9225;BME280;4647;48.072;11.616;2023-03-16T08:40:11;95576.47;;;4.36;70.46
9225;BME280;4647;48.072;11.616;2023-03-16T08:42:41;95580.91;;;4.81;69.18
9225;BME280;4647;48.072;11.616;2023-03-16T08:45:10;95580.69;;;4.37;70.13
9225;BME280;4647;48.072;11.616;2023-03-16T08:47:39;95578.69;;;4.30;69.37
9225;BME280;4647;48.072;11.616;2023-03-16T08:50:12;95572.88;;;4.02;70.18
9225;BME280;4647;48.072;11.616;2023-03-16T08:52:40;95568.91;;;3.92;71.03
9225;BME280;4647;48.072;11.616;2023-03-16T08:55:09;95551.63;;;3.63;71.42
9225;BME280;4647;48.072;11.616;2023-03-16T08:57:40;95566.38;;;3.77;71.01
9225;BME280;4647;48.072;11.616;2023-03-16T09:00:11;95566.66;;;3.94;70.56
9225;BME280;4647;48.072;11.616;2023-03-16T09:02:40;95565.97;;;4.01;70.30
9225;BME280;4647;48.072;11.616;2023-03-16T09:05:12;95570.31;;;4.62;69.35
9225;BME280;4647;48.072;11.616;2023-03-16T09:07:42;95571.88;;;5.30;67.23
9225;BME280;4647;48.072;11.616;2023-03-16T09:10:12;95567.81;;;5.10;67.05
9225;BME280;4647;48.072;11.616;2023-03-16T09:12:42;95567.94;;;4.87;68.56
9225;BME280;4647;48.072;11.616;2023-03-16T09:15:11;95560.91;;;5.09;67.43
9225;BME280;4647;48.072;11.616;2023-03-16T09:17:40;95564.38;;;5.13;67.35
9225;BME280;4647;48.072;11.616;2023-03-16T09:20:14;95563.19;;;4.73;68.56
9225;BME280;4647;48.072;11.616;2023-03-16T09:22:45;95567.44;;;4.78;68.23
9225;BME280;4647;48.072;11.616;2023-03-16T09:25:14;95566.53;;;5.34;66.47
9225;BME280;4647;48.072;11.616;2023-03-16T09:27:42;95571.00;;;5.60;67.04
9225;BME280;4647;48.072;11.616;2023-03-16T09:30:12;95568.72;;;5.62;66.30
9225;BME280;4647;48.072;11.616;2023-03-16T09:32:41;95576.50;;;5.33;66.96
9225;BME280;4647;48.072;11.616;2023-03-16T09:35:15;95574.63;;;5.37;66.79
9225;BME280;4647;48.072;11.616;2023-03-16T09:37:44;95570.38;;;5.33;66.97
9225;BME280;4647;48.072;11.616;2023-03-16T09:40:20;95572.13;;;5.18;67.05
9225;BME280;4647;48.072;11.616;2023-03-16T09:42:59;95567.94;;;5.61;65.68
9225;BME280;4647;48.072;11.616;2023-03-16T09:45:35;95576.72;;;5.54;65.73
9225;BME280;4647;48.072;11.616;2023-03-16T09:48:05;95572.69;;;5.75;64.82
9225;BME280;4647;48.072;11.616;2023-03-16T09:50:38;95579.47;;;5.62;65.80
9225;BME280;4647;48.072;11.616;2023-03-16T09:53:15;95578.69;;;5.20;66.71
9225;BME280;4647;48.072;11.616;2023-03-16T09:55:48;95571.41;;;4.91;68.06
9225;BME280;4647;48.072;11.616;2023-03-16T09:58:20;95577.69;;;4.72;69.43
9225;BME280;4647;48.072;11.616;2023-03-16T10:01:00;95583.53;;;5.08;68.41
9225;BME280;4647;48.072;11.616;2023-03-16T10:03:56;95574.44;;;4.86;68.51
9225;BME280;4647;48.072;11.616;2023-03-16T10:06:29;95564.81;;;4.51;67.89
9225;BME280;4647;48.072;11.616;2023-03-16T10:09:05;95562.66;;;4.64;68.73
9225;BME280;4647;48.072;11.616;2023-03-16T10:11:37;95566.16;;;4.68;68.12
9225;BME280;4647;48.072;11.616;2023-03-16T10:14:11;95564.16;;;4.61;68.43
9225;BME280;4647;48.072;11.616;2023-03-16T10:16:46;95559.28;;;4.71;67.65
9225;BME280;4647;48.072;11.616;2023-03-16T10:19:17;95565.41;;;5.38;66.97
9225;BME280;4647;48.072;11.616;2023-03-16T10:21:52;95564.31;;;5.43;67.11
9225;BME280;4647;48.072;11.616;2023-03-16T10:24:30;95563.06;;;5.33;65.91
9225;BME280;4647;48.072;11.616;2023-03-16T10:27:03;95559.59;;;5.70;64.53
9225;BME280;4647;48.072;11.616;2023-03-16T10:29:35;95558.78;;;5.25;65.81
9225;BME280;4647;48.072;11.616;2023-03-16T10:32:11;95527.88;;;5.05;67.68
9225;BME280;4647;48.072;11.616;2023-03-16T10:34:42;95558.19;;;5.05;68.77
9225;BME280;4647;48.072;11.616;2023-03-16T10:37:15;95553.06;;;4.97;69.96
9225;BME280;4647;48.072;11.616;2023-03-16T10:39:43;95474.47;;;4.29;70.29
9225;BME280;4647;48.072;11.616;2023-03-16T10:42:15;95540.19;;;4.76;69.96
9225;BME280;4647;48.072;11.616;2023-03-16T10:44:45;95544.31;;;4.70;69.81
9225;BME280;4647;48.072;11.616;2023-03-16T10:47:21;95508.91;;;4.57;69.44
9225;BME280;4647;48.072;11.616;2023-03-16T10:49:50;95536.25;;;5.00;69.69
9225;BME280;4647;48.072;11.616;2023-03-16T10:52:27;95533.72;;;5.14;67.65
9225;BME280;4647;48.072;11.616;2023-03-16T10:54:59;95515.41;;;5.23;67.58
9225;BME280;4647;48.072;11.616;2023-03-16T10:57:31;95541.03;;;5.58;67.12
9225;BME280;4647;48.072;11.616;2023-03-16T11:00:05;95538.50;;;5.31;68.26
9225;BME280;4647;48.072;11.616;2023-03-16T11:02:40;95540.13;;;5.43;67.79
9225;BME280;4647;48.072;11.616;2023-03-16T11:05:12;95530.41;;;4.94;68.48
9225;BME280;4647;48.072;11.616;2023-03-16T11:07:49;95525.78;;;4.91;68.67
9225;BME280;4647;48.072;11.616;2023-03-16T11:10:25;95524.41;;;5.04;69.28
9225;BME280;4647;48.072;11.616;2023-03-16T11:13:01;95516.75;;;5.06;68.96
9225;BME280;4647;48.072;11.616;2023-03-16T11:15:35;95512.22;;;5.14;69.45
9225;BME280;4647;48.072;11.616;2023-03-16T11:18:05;95512.50;;;5.42;68.24
9225;BME280;4647;48.072;11.616;2023-03-16T11:20:36;95501.88;;;5.57;67.29
9225;BME280;4647;48.072;11.616;2023-03-16T11:23:10;95491.97;;;6.19;65.58
9225;BME280;4647;48.072;11.616;2023-03-16T11:25:46;95494.31;;;6.24;66.11
9225;BME280;4647;48.072;11.616;2023-03-16T11:28:21;95493.78;;;5.97;65.09
9225;BME280;4647;48.072;11.616;2023-03-16T11:30:57;95494.22;;;6.10;64.96
9225;BME280;4647;48.072;11.616;2023-03-16T11:33:30;95465.94;;;5.79;65.80
9225;BME280;4647;48.072;11.616;2023-03-16T11:36:12;95484.44;;;5.88;66.35
9225;BME280;4647;48.072;11.616;2023-03-16T11:38:48;95483.91;;;6.15;64.90
9225;BME280;4647;48.072;11.616;2023-03-16T11:41:25;95487.81;;;6.36;64.55
9225;BME280;4647;48.072;11.616;2023-03-16T11:43:56;95472.06;;;6.31;65.10
9225;BME280;4647;48.072;11.616;2023-03-16T11:46:30;95466.41;;;6.61;63.52
9225;BME280;4647;48.072;11.616;2023-03-16T11:49:15;95456.28;;;6.33;64.64
9225;BME280;4647;48.072;11.616;2023-03-16T11:51:56;95457.25;;;6.76;63.91
9225;BME280;4647;48.072;11.616;2023-03-16T11:54:42;95460.28;;;6.67;61.97
9225;BME280;4647;48.072;11.616;2023-03-16T11:57:27;95451.84;;;6.72;62.60
9225;BME280;4647;48.072;11.616;2023-03-16T12:00:16;95446.50;;;6.90;62.19
9225;BME280;4647;48.072;11.616;2023-03-16T12:02:55;95451.91;;;6.97;61.12
9225;BME280;4647;48.072;11.616;2023-03-16T12:05:38;95436.47;;;6.80;59.28
9225;BME280;4647;48.072;11.616;2023-03-16T12:08:25;95431.56;;;7.14;58.68
9225;BME280;4647;48.072;11.616;2023-03-16T12:11:04;95425.03;;;7.36;59.05
9225;BME280;4647;48.072;11.616;2023-03-16T12:13:48;95426.53;;;7.73;59.63
9225;BME280;4647;48.072;11.616;2023-03-16T12:16:22;95425.00;;;7.47;58.71
9225;BME280;4647;48.072;11.616;2023-03-16T12:18:57;95424.63;;;7.59;57.69
9225;BME280;4647;48.072;11.616;2023-03-16T12:21:29;95417.69;;;7.62;57.80
9225;BME280;4647;48.072;11.616;2023-03-16T12:24:01;95406.53;;;7.63;56.88
9225;BME280;4647;48.072;11.616;2023-03-16T12:26:39;95406.13;;;7.65;56.22
9225;BME280;4647;48.072;11.616;2023-03-16T12:29:15;95408.84;;;7.58;56.51
9225;BME280;4647;48.072;11.616;2023-03-16T12:31:50;95402.66;;;7.50;56.99
9225;BME280;4647;48.072;11.616;2023-03-16T12:34:25;95403.41;;;7.79;56.89
9225;BME280;4647;48.072;11.616;2023-03-16T12:37:21;95402.97;;;8.02;56.20
9225;BME280;4647;48.072;11.616;2023-03-16T12:40:11;95404.50;;;8.10;57.44
9225;BME280;4647;48.072;11.616;2023-03-16T12:42:59;95406.38;;;8.24;54.95
9225;BME280;4647;48.072;11.616;2023-03-16T12:45:39;95404.19;;;7.76;54.30
9225;BME280;4647;48.072;11.616;2023-03-16T12:48:19;95387.66;;;7.60;54.70
9225;BME280;4647;48.072;11.616;2023-03-16T12:50:53;95409.56;;;7.90;53.21
9225;BME280;4647;48.072;11.616;2023-03-16T12:53:37;95396.06;;;7.94;54.54
9225;BME280;4647;48.072;11.616;2023-03-16T12:56:09;95392.97;;;7.92;52.75
9225;BME280;4647;48.072;11.616;2023-03-16T12:58:44;95394.13;;;7.94;52.69
9225;BME280;4647;48.072;11.616;2023-03-16T13:01:15;95397.59;;;7.98;52.71
9225;BME280;4647;48.072;11.616;2023-03-16T13:03:47;95388.34;;;7.92;52.39
9225;BME280;4647;48.072;11.616;2023-03-16T13:06:18;95391.72;;;8.25;51.06
9225;BME280;4647;48.072;11.616;2023-03-16T13:08:52;95372.78;;;8.43;48.33
9225;BME280;4647;48.072;11.616;2023-03-16T13:11:24;95384.78;;;8.35;50.90
9225;BME280;4647;48.072;11.616;2023-03-16T13:14:07;95381.72;;;8.22;50.04
9225;BME280;4647;48.072;11.616;2023-03-16T13:16:38;95377.38;;;8.49;48.61
9225;BME280;4647;48.072;11.616;2023-03-16T13:19:23;95376.16;;;8.61;46.98
9225;BME280;4647;48.072;11.616;2023-03-16T13:22:01;95369.25;;;8.56;48.34
9225;BME280;4647;48.072;11.616;2023-03-16T13:24:51;95370.38;;;8.63;49.98
9225;BME280;4647;48.072;11.616;2023-03-16T13:27:21;95369.13;;;8.74;50.86
9225;BME280;4647;48.072;11.616;2023-03-16T13:29:58;95370.66;;;8.82;49.24
9225;BME280;4647;48.072;11.616;2023-03-16T13:32:31;95370.97;;;8.91;48.71
9225;BME280;4647;48.072;11.616;2023-03-16T13:35:01;95373.19;;;9.07;46.70
9225;BME280;4647;48.072;11.616;2023-03-16T13:37:34;95372.41;;;9.07;47.69
9225;BME280;4647;48.072;11.616;2023-03-16T13:40:17;95364.47;;;8.82;46.12
9225;BME280;4647;48.072;11.616;2023-03-16T13:42:48;95370.06;;;9.12;48.86
9225;BME280;4647;48.072;11.616;2023-03-16T13:45:27;95360.47;;;9.04;49.13